sensor_id;sensor_type;location;lat;lon;timestamp;P1;durP1;ratioP1;P2;durP2;ratioP2
73550;SDS011;61816;53.582;10.096;2023-08-30T00:01:45;10.18;;;4.30;;
73550;SDS011;61816;53.582;10.096;2023-08-30T00:04:11;10.55;;;4.72;;
73550;SDS011;61816;53.582;10.096;2023-08-30T00:06:37;9.65;;;5.68;;
73550;SDS011;61816;53.582;10.096;2023-08-30T00:09:02;9.13;;;4.97;;
73550;SDS011;61816;53.582;10.096;2023-08-30T00:11:28;12.15;;;5.95;;
73550;SDS011;61816;53.582;10.096;2023-08-30T00:14:02;10.32;;;4.57;;
73550;SDS011;61816;53.582;10.096;2023-08-30T00:16:30;12.82;;;5.28;;
73550;SDS011;61816;53.582;10.096;2023-08-30T00:18:56;12.10;;;5.88;;
73550;SDS011;61816;53.582;10.096;2023-08-30T00:21:22;9.52;;;6.05;;
73550;SDS011;61816;53.582;10.096;2023-08-30T00:23:47;7.28;;;4.13;;
73550;SDS011;61816;53.582;10.096;2023-08-30T00:26:12;13.05;;;4.93;;
73550;SDS011;61816;53.582;10.096;2023-08-30T00:28:38;11.23;;;5.60;;
73550;SDS011;61816;53.582;10.096;2023-08-30T00:31:03;10.82;;;5.28;;
73550;SDS011;61816;53.582;10.096;2023-08-30T00:33:28;7.82;;;5.10;;
73550;SDS011;61816;53.582;10.096;2023-08-30T00:35:57;11.02;;;5.90;;
73550;SDS011;61816;53.582;10.096;2023-08-30T00:38:23;14.65;;;7.15;;
73550;SDS011;61816;53.582;10.096;2023-08-30T00:40:49;21.15;;;11.50;;
73550;SDS011;61816;53.582;10.096;2023-08-30T00:43:14;17.27;;;7.22;;
73550;SDS011;61816;53.582;10.096;2023-08-30T00:45:40;9.73;;;5.75;;
73550;SDS011;61816;53.582;10.096;2023-08-30T00:48:05;8.82;;;5.57;;
73550;SDS011;61816;53.582;10.096;2023-08-30T00:50:31;14.07;;;5.07;;
73550;SDS011;61816;53.582;10.096;2023-08-30T00:52:58;10.57;;;5.72;;
73550;SDS011;61816;53.582;10.096;2023-08-30T00:55:23;9.73;;;5.53;;
73550;SDS011;61816;53.582;10.096;2023-08-30T00:57:49;12.68;;;5.82;;
73550;SDS011;61816;53.582;10.096;2023-08-30T01:00:14;10.35;;;5.63;;
73550;SDS011;61816;53.582;10.096;2023-08-30T01:02:40;9.18;;;5.25;;
73550;SDS011;61816;53.582;10.096;2023-08-30T01:05:05;8.18;;;5.20;;
73550;SDS011;61816;53.582;10.096;2023-08-30T01:07:31;10.85;;;5.93;;
73550;SDS011;61816;53.582;10.096;2023-08-30T01:09:56;11.73;;;5.35;;
73550;SDS011;61816;53.582;10.096;2023-08-30T01:12:29;10.40;;;5.55;;
73550;SDS011;61816;53.582;10.096;2023-08-30T01:15:20;8.82;;;5.72;;
73550;SDS011;61816;53.582;10.096;2023-08-30T01:17:47;8.10;;;5.30;;
73550;SDS011;61816;53.582;10.096;2023-08-30T01:20:14;9.93;;;5.82;;
73550;SDS011;61816;53.582;10.096;2023-08-30T01:22:46;7.10;;;5.28;;
73550;SDS011;61816;53.582;10.096;2023-08-30T01:28:31;9.20;;;5.53;;
73550;SDS011;61816;53.582;10.096;2023-08-30T01:30:58;9.18;;;5.30;;
73550;SDS011;61816;53.582;10.096;2023-08-30T01:33:24;11.60;;;5.40;;
73550;SDS011;61816;53.582;10.096;2023-08-30T01:35:56;9.45;;;5.82;;
73550;SDS011;61816;53.582;10.096;2023-08-30T01:38:23;9.33;;;5.07;;
73550;SDS011;61816;53.582;10.096;2023-08-30T01:40:50;7.85;;;4.93;;
73550;SDS011;61816;53.582;10.096;2023-08-30T01:43:16;12.82;;;5.45;;
73550;SDS011;61816;53.582;10.096;2023-08-30T01:45:43;14.13;;;5.30;;
73550;SDS011;61816;53.582;10.096;2023-08-30T01:48:10;9.57;;;5.60;;
73550;SDS011;61816;53.582;10.096;2023-08-30T01:50:38;9.40;;;5.70;;
73550;SDS011;61816;53.582;10.096;2023-08-30T01:53:05;14.93;;;6.53;;
73550;SDS011;61816;53.582;10.096;2023-08-30T01:55:31;16.40;;;5.20;;
73550;SDS011;61816;53.582;10.096;2023-08-30T01:57:58;11.07;;;5.43;;
73550;SDS011;61816;53.582;10.096;2023-08-30T02:00:23;7.70;;;4.95;;
73550;SDS011;61816;53.582;10.096;2023-08-30T02:02:49;11.10;;;5.68;;
73550;SDS011;61816;53.582;10.096;2023-08-30T02:05:14;11.68;;;5.85;;
73550;SDS011;61816;53.582;10.096;2023-08-30T02:07:42;10.65;;;4.88;;
73550;SDS011;61816;53.582;10.096;2023-08-30T02:10:15;11.93;;;4.97;;
73550;SDS011;61816;53.582;10.096;2023-08-30T02:12:47;9.13;;;5.93;;
73550;SDS011;61816;53.582;10.096;2023-08-30T02:15:14;9.18;;;5.80;;
73550;SDS011;61816;53.582;10.096;2023-08-30T02:17:41;12.90;;;6.15;;
73550;SDS011;61816;53.582;10.096;2023-08-30T02:20:06;12.02;;;5.72;;
73550;SDS011;61816;53.582;10.096;2023-08-30T02:22:32;11.05;;;6.20;;
73550;SDS011;61816;53.582;10.096;2023-08-30T02:24:58;18.55;;;6.70;;
73550;SDS011;61816;53.582;10.096;2023-08-30T02:27:24;9.50;;;6.07;;
73550;SDS011;61816;53.582;10.096;2023-08-30T02:29:49;10.30;;;5.80;;
73550;SDS011;61816;53.582;10.096;2023-08-30T02:32:15;8.27;;;5.88;;
73550;SDS011;61816;53.582;10.096;2023-08-30T02:34:45;11.98;;;7.10;;
73550;SDS011;61816;53.582;10.096;2023-08-30T02:37:11;13.02;;;6.07;;
73550;SDS011;61816;53.582;10.096;2023-08-30T02:39:36;10.80;;;5.90;;
73550;SDS011;61816;53.582;10.096;2023-08-30T02:42:01;10.93;;;6.10;;
73550;SDS011;61816;53.582;10.096;2023-08-30T02:44:27;9.25;;;5.93;;
73550;SDS011;61816;53.582;10.096;2023-08-30T02:46:52;13.65;;;5.68;;
73550;SDS011;61816;53.582;10.096;2023-08-30T02:49:17;22.67;;;6.60;;
73550;SDS011;61816;53.582;10.096;2023-08-30T02:51:43;8.15;;;5.35;;
73550;SDS011;61816;53.582;10.096;2023-08-30T02:54:08;8.63;;;5.63;;
73550;SDS011;61816;53.582;10.096;2023-08-30T02:56:33;12.40;;;6.60;;
73550;SDS011;61816;53.582;10.096;2023-08-30T02:58:59;13.65;;;5.72;;
73550;SDS011;61816;53.582;10.096;2023-08-30T03:01:24;14.07;;;7.45;;
73550;SDS011;61816;53.582;10.096;2023-08-30T03:03:50;10.57;;;6.57;;
73550;SDS011;61816;53.582;10.096;2023-08-30T03:06:15;16.08;;;6.88;;
73550;SDS011;61816;53.582;10.096;2023-08-30T03:08:40;11.35;;;6.95;;
73550;SDS011;61816;53.582;10.096;2023-08-30T03:11:09;10.15;;;7.63;;
73550;SDS011;61816;53.582;10.096;2023-08-30T03:13:36;14.88;;;7.88;;
73550;SDS011;61816;53.582;10.096;2023-08-30T03:16:09;16.55;;;9.38;;
73550;SDS011;61816;53.582;10.096;2023-08-30T03:18:38;17.40;;;8.40;;
73550;SDS011;61816;53.582;10.096;2023-08-30T03:21:04;17.25;;;8.57;;
73550;SDS011;61816;53.582;10.096;2023-08-30T03:23:33;20.77;;;9.55;;
73550;SDS011;61816;53.582;10.096;2023-08-30T03:25:59;12.70;;;7.97;;
73550;SDS011;61816;53.582;10.096;2023-08-30T03:28:25;11.73;;;7.80;;
73550;SDS011;61816;53.582;10.096;2023-08-30T03:30:52;18.42;;;10.30;;
73550;SDS011;61816;53.582;10.096;2023-08-30T03:33:17;15.10;;;9.95;;
73550;SDS011;61816;53.582;10.096;2023-08-30T03:35:43;16.25;;;9.88;;
73550;SDS011;61816;53.582;10.096;2023-08-30T03:38:08;20.10;;;10.40;;
73550;SDS011;61816;53.582;10.096;2023-08-30T03:40:33;15.40;;;9.65;;
73550;SDS011;61816;53.582;10.096;2023-08-30T03:42:59;18.83;;;10.07;;
73550;SDS011;61816;53.582;10.096;2023-08-30T03:45:24;18.42;;;10.18;;
73550;SDS011;61816;53.582;10.096;2023-08-30T03:47:49;19.30;;;9.68;;
73550;SDS011;61816;53.582;10.096;2023-08-30T03:50:15;17.90;;;11.57;;
73550;SDS011;61816;53.582;10.096;2023-08-30T03:52:40;17.38;;;10.70;;
73550;SDS011;61816;53.582;10.096;2023-08-30T03:55:06;17.42;;;11.02;;
73550;SDS011;61816;53.582;10.096;2023-08-30T03:57:31;14.82;;;10.07;;
73550;SDS011;61816;53.582;10.096;2023-08-30T03:59:57;16.58;;;11.00;;
73550;SDS011;61816;53.582;10.096;2023-08-30T04:02:22;17.42;;;11.65;;
73550;SDS011;61816;53.582;10.096;2023-08-30T04:04:48;16.70;;;12.07;;
73550;SDS011;61816;53.582;10.096;2023-08-30T04:07:14;18.92;;;12.07;;
73550;SDS011;61816;53.582;10.096;2023-08-30T04:09:39;17.73;;;12.45;;
73550;SDS011;61816;53.582;10.096;2023-08-30T04:12:05;16.05;;;11.45;;
73550;SDS011;61816;53.582;10.096;2023-08-30T04:14:31;18.88;;;12.90;;
73550;SDS011;61816;53.582;10.096;2023-08-30T04:16:56;19.25;;;13.40;;
73550;SDS011;61816;53.582;10.096;2023-08-30T04:19:21;17.45;;;11.73;;
73550;SDS011;61816;53.582;10.096;2023-08-30T04:21:47;18.35;;;12.15;;
73550;SDS011;61816;53.582;10.096;2023-08-30T04:24:12;18.15;;;11.27;;
73550;SDS011;61816;53.582;10.096;2023-08-30T04:26:39;21.35;;;12.80;;
73550;SDS011;61816;53.582;10.096;2023-08-30T04:29:04;20.67;;;13.13;;
73550;SDS011;61816;53.582;10.096;2023-08-30T04:31:30;22.58;;;14.30;;
73550;SDS011;61816;53.582;10.096;2023-08-30T04:33:55;20.80;;;14.90;;
73550;SDS011;61816;53.582;10.096;2023-08-30T04:36:21;24.13;;;14.68;;
73550;SDS011;61816;53.582;10.096;2023-08-30T04:38:47;23.50;;;14.15;;
73550;SDS011;61816;53.582;10.096;2023-08-30T04:41:12;28.27;;;14.90;;
73550;SDS011;61816;53.582;10.096;2023-08-30T04:43:37;24.15;;;15.73;;
73550;SDS011;61816;53.582;10.096;2023-08-30T04:46:03;21.58;;;15.02;;
73550;SDS011;61816;53.582;10.096;2023-08-30T04:48:28;19.83;;;14.90;;
73550;SDS011;61816;53.582;10.096;2023-08-30T04:51:03;25.88;;;15.35;;
73550;SDS011;61816;53.582;10.096;2023-08-30T04:53:30;24.65;;;17.30;;
73550;SDS011;61816;53.582;10.096;2023-08-30T04:55:55;25.48;;;16.20;;
73550;SDS011;61816;53.582;10.096;2023-08-30T04:58:21;23.55;;;14.57;;
73550;SDS011;61816;53.582;10.096;2023-08-30T05:00:46;26.10;;;14.82;;
73550;SDS011;61816;53.582;10.096;2023-08-30T05:03:12;22.15;;;15.98;;
73550;SDS011;61816;53.582;10.096;2023-08-30T05:05:37;22.20;;;14.90;;
73550;SDS011;61816;53.582;10.096;2023-08-30T05:08:03;27.80;;;16.10;;
73550;SDS011;61816;53.582;10.096;2023-08-30T05:10:29;23.42;;;16.38;;
73550;SDS011;61816;53.582;10.096;2023-08-30T05:12:54;20.02;;;14.80;;
73550;SDS011;61816;53.582;10.096;2023-08-30T05:15:20;22.63;;;14.00;;
73550;SDS011;61816;53.582;10.096;2023-08-30T05:17:46;20.65;;;14.18;;
73550;SDS011;61816;53.582;10.096;2023-08-30T05:20:11;19.58;;;14.00;;
73550;SDS011;61816;53.582;10.096;2023-08-30T05:22:37;22.38;;;14.50;;
73550;SDS011;61816;53.582;10.096;2023-08-30T05:25:02;16.63;;;12.82;;
73550;SDS011;61816;53.582;10.096;2023-08-30T05:27:28;22.10;;;13.82;;
73550;SDS011;61816;53.582;10.096;2023-08-30T05:29:53;19.48;;;13.25;;
73550;SDS011;61816;53.582;10.096;2023-08-30T05:32:21;20.23;;;12.77;;
73550;SDS011;61816;53.582;10.096;2023-08-30T05:34:46;19.73;;;11.73;;
73550;SDS011;61816;53.582;10.096;2023-08-30T05:37:12;19.33;;;12.32;;
73550;SDS011;61816;53.582;10.096;2023-08-30T05:39:37;18.75;;;11.35;;
73550;SDS011;61816;53.582;10.096;2023-08-30T05:42:03;16.42;;;10.93;;
73550;SDS011;61816;53.582;10.096;2023-08-30T05:44:28;15.02;;;11.38;;
73550;SDS011;61816;53.582;10.096;2023-08-30T05:46:54;16.92;;;10.88;;
73550;SDS011;61816;53.582;10.096;2023-08-30T05:49:19;18.88;;;10.77;;
73550;SDS011;61816;53.582;10.096;2023-08-30T05:51:45;13.40;;;10.38;;
73550;SDS011;61816;53.582;10.096;2023-08-30T05:54:10;11.95;;;10.20;;
73550;SDS011;61816;53.582;10.096;2023-08-30T05:56:35;13.75;;;9.85;;
73550;SDS011;61816;53.582;10.096;2023-08-30T05:59:01;15.02;;;9.73;;
73550;SDS011;61816;53.582;10.096;2023-08-30T06:01:26;15.98;;;9.60;;
73550;SDS011;61816;53.582;10.096;2023-08-30T06:03:52;12.43;;;9.43;;
73550;SDS011;61816;53.582;10.096;2023-08-30T06:06:17;17.80;;;8.52;;
73550;SDS011;61816;53.582;10.096;2023-08-30T06:08:43;14.23;;;9.45;;
73550;SDS011;61816;53.582;10.096;2023-08-30T06:11:08;15.23;;;8.43;;
73550;SDS011;61816;53.582;10.096;2023-08-30T06:13:34;14.75;;;8.88;;
73550;SDS011;61816;53.582;10.096;2023-08-30T06:15:59;14.55;;;9.32;;
73550;SDS011;61816;53.582;10.096;2023-08-30T06:18:26;17.92;;;9.95;;
73550;SDS011;61816;53.582;10.096;2023-08-30T06:20:54;16.02;;;8.80;;
73550;SDS011;61816;53.582;10.096;2023-08-30T06:23:20;20.73;;;9.10;;
73550;SDS011;61816;53.582;10.096;2023-08-30T06:25:52;14.68;;;8.90;;
73550;SDS011;61816;53.582;10.096;2023-08-30T06:28:21;23.63;;;9.40;;
73550;SDS011;61816;53.582;10.096;2023-08-30T06:30:47;15.95;;;10.38;;
73550;SDS011;61816;53.582;10.096;2023-08-30T06:33:12;19.33;;;9.35;;
73550;SDS011;61816;53.582;10.096;2023-08-30T06:35:38;16.67;;;9.63;;
73550;SDS011;61816;53.582;10.096;2023-08-30T06:38:04;16.73;;;8.98;;
73550;SDS011;61816;53.582;10.096;2023-08-30T06:40:30;23.52;;;9.02;;
73550;SDS011;61816;53.582;10.096;2023-08-30T06:42:55;31.90;;;8.00;;
73550;SDS011;61816;53.582;10.096;2023-08-30T06:45:22;14.90;;;9.43;;
73550;SDS011;61816;53.582;10.096;2023-08-30T06:47:48;19.15;;;9.02;;
73550;SDS011;61816;53.582;10.096;2023-08-30T06:50:14;15.55;;;8.07;;
73550;SDS011;61816;53.582;10.096;2023-08-30T06:52:40;16.70;;;7.43;;
73550;SDS011;61816;53.582;10.096;2023-08-30T06:55:05;17.05;;;8.30;;
73550;SDS011;61816;53.582;10.096;2023-08-30T06:57:31;11.23;;;8.50;;
73550;SDS011;61816;53.582;10.096;2023-08-30T06:59:56;15.23;;;8.50;;
73550;SDS011;61816;53.582;10.096;2023-08-30T07:02:22;16.85;;;9.23;;
73550;SDS011;61816;53.582;10.096;2023-08-30T07:04:47;23.30;;;9.00;;
73550;SDS011;61816;53.582;10.096;2023-08-30T07:07:13;19.48;;;9.60;;
73550;SDS011;61816;53.582;10.096;2023-08-30T07:09:39;14.15;;;9.70;;
73550;SDS011;61816;53.582;10.096;2023-08-30T07:12:05;19.27;;;11.13;;
73550;SDS011;61816;53.582;10.096;2023-08-30T07:14:30;15.88;;;11.15;;
73550;SDS011;61816;53.582;10.096;2023-08-30T07:16:56;19.10;;;10.48;;
73550;SDS011;61816;53.582;10.096;2023-08-30T07:19:21;15.98;;;10.68;;
73550;SDS011;61816;53.582;10.096;2023-08-30T07:21:46;18.95;;;9.32;;
73550;SDS011;61816;53.582;10.096;2023-08-30T07:24:11;14.60;;;8.90;;
73550;SDS011;61816;53.582;10.096;2023-08-30T07:26:37;15.27;;;8.23;;
73550;SDS011;61816;53.582;10.096;2023-08-30T07:29:03;15.98;;;9.27;;
73550;SDS011;61816;53.582;10.096;2023-08-30T07:31:31;12.18;;;7.78;;
73550;SDS011;61816;53.582;10.096;2023-08-30T07:33:57;18.77;;;8.52;;
73550;SDS011;61816;53.582;10.096;2023-08-30T07:36:24;19.60;;;7.50;;
73550;SDS011;61816;53.582;10.096;2023-08-30T07:38:50;25.25;;;7.65;;
73550;SDS011;61816;53.582;10.096;2023-08-30T07:41:15;13.10;;;8.35;;
73550;SDS011;61816;53.582;10.096;2023-08-30T07:43:41;16.20;;;8.38;;
73550;SDS011;61816;53.582;10.096;2023-08-30T07:46:07;12.40;;;8.10;;
73550;SDS011;61816;53.582;10.096;2023-08-30T07:48:32;15.15;;;7.82;;
73550;SDS011;61816;53.582;10.096;2023-08-30T07:50:57;16.02;;;10.75;;
73550;SDS011;61816;53.582;10.096;2023-08-30T07:53:23;17.33;;;8.38;;
73550;SDS011;61816;53.582;10.096;2023-08-30T07:55:49;19.52;;;7.22;;
73550;SDS011;61816;53.582;10.096;2023-08-30T07:58:17;23.23;;;7.10;;
73550;SDS011;61816;53.582;10.096;2023-08-30T08:00:43;13.52;;;7.90;;
73550;SDS011;61816;53.582;10.096;2023-08-30T08:03:09;12.93;;;7.43;;
73550;SDS011;61816;53.582;10.096;2023-08-30T08:05:35;14.55;;;8.02;;
73550;SDS011;61816;53.582;10.096;2023-08-30T08:08:01;17.05;;;7.95;;
73550;SDS011;61816;53.582;10.096;2023-08-30T08:10:27;19.67;;;9.00;;
73550;SDS011;61816;53.582;10.096;2023-08-30T08:12:56;16.33;;;7.80;;
73550;SDS011;61816;53.582;10.096;2023-08-30T08:15:21;18.20;;;8.43;;
73550;SDS011;61816;53.582;10.096;2023-08-30T08:17:47;14.07;;;8.20;;
73550;SDS011;61816;53.582;10.096;2023-08-30T08:20:12;16.38;;;8.15;;
73550;SDS011;61816;53.582;10.096;2023-08-30T08:22:38;15.52;;;8.18;;
73550;SDS011;61816;53.582;10.096;2023-08-30T08:25:04;12.60;;;8.32;;
73550;SDS011;61816;53.582;10.096;2023-08-30T08:27:29;16.83;;;9.13;;
73550;SDS011;61816;53.582;10.096;2023-08-30T08:29:55;17.00;;;8.70;;
73550;SDS011;61816;53.582;10.096;2023-08-30T08:32:20;15.95;;;8.45;;
73550;SDS011;61816;53.582;10.096;2023-08-30T08:34:46;14.23;;;8.98;;
73550;SDS011;61816;53.582;10.096;2023-08-30T08:37:11;15.80;;;9.85;;
73550;SDS011;61816;53.582;10.096;2023-08-30T08:39:36;13.80;;;10.15;;
73550;SDS011;61816;53.582;10.096;2023-08-30T08:42:02;20.48;;;10.57;;
73550;SDS011;61816;53.582;10.096;2023-08-30T08:44:32;17.70;;;10.20;;
73550;SDS011;61816;53.582;10.096;2023-08-30T08:46:57;18.50;;;10.57;;
73550;SDS011;61816;53.582;10.096;2023-08-30T08:49:24;15.98;;;9.20;;
73550;SDS011;61816;53.582;10.096;2023-08-30T08:51:53;20.40;;;9.50;;
73550;SDS011;61816;53.582;10.096;2023-08-30T08:54:19;16.92;;;8.27;;
73550;SDS011;61816;53.582;10.096;2023-08-30T08:56:45;20.08;;;9.60;;
73550;SDS011;61816;53.582;10.096;2023-08-30T08:59:11;15.30;;;9.43;;
73550;SDS011;61816;53.582;10.096;2023-08-30T09:01:36;23.80;;;8.57;;
73550;SDS011;61816;53.582;10.096;2023-08-30T09:04:08;13.50;;;8.95;;
73550;SDS011;61816;53.582;10.096;2023-08-30T09:06:35;20.02;;;8.93;;
73550;SDS011;61816;53.582;10.096;2023-08-30T09:09:02;16.10;;;8.93;;
73550;SDS011;61816;53.582;10.096;2023-08-30T09:11:31;13.45;;;8.07;;
73550;SDS011;61816;53.582;10.096;2023-08-30T09:13:57;14.65;;;7.57;;
73550;SDS011;61816;53.582;10.096;2023-08-30T09:16:22;23.40;;;8.80;;
73550;SDS011;61816;53.582;10.096;2023-08-30T09:19:01;15.15;;;7.70;;
73550;SDS011;61816;53.582;10.096;2023-08-30T09:21:28;11.10;;;7.60;;
73550;SDS011;61816;53.582;10.096;2023-08-30T09:24:00;20.55;;;6.95;;
73550;SDS011;61816;53.582;10.096;2023-08-30T09:26:28;14.60;;;6.70;;
73550;SDS011;61816;53.582;10.096;2023-08-30T09:29:00;12.70;;;6.55;;
73550;SDS011;61816;53.582;10.096;2023-08-30T09:31:36;12.35;;;6.00;;
73550;SDS011;61816;53.582;10.096;2023-08-30T09:34:02;15.55;;;5.80;;
73550;SDS011;61816;53.582;10.096;2023-08-30T09:36:35;17.10;;;6.32;;
73550;SDS011;61816;53.582;10.096;2023-08-30T09:39:11;17.83;;;6.22;;
73550;SDS011;61816;53.582;10.096;2023-08-30T09:41:41;11.85;;;5.85;;
73550;SDS011;61816;53.582;10.096;2023-08-30T09:44:11;11.07;;;5.65;;
73550;SDS011;61816;53.582;10.096;2023-08-30T09:46:41;13.00;;;6.00;;
73550;SDS011;61816;53.582;10.096;2023-08-30T09:49:08;10.23;;;6.13;;
73550;SDS011;61816;53.582;10.096;2023-08-30T09:51:34;12.88;;;6.32;;
73550;SDS011;61816;53.582;10.096;2023-08-30T09:54:03;13.07;;;6.10;;
73550;SDS011;61816;53.582;10.096;2023-08-30T09:56:31;15.00;;;5.97;;
73550;SDS011;61816;53.582;10.096;2023-08-30T09:58:57;10.90;;;5.22;;
73550;SDS011;61816;53.582;10.096;2023-08-30T10:01:27;11.38;;;6.32;;
73550;SDS011;61816;53.582;10.096;2023-08-30T10:03:54;11.15;;;5.38;;
73550;SDS011;61816;53.582;10.096;2023-08-30T10:06:21;11.75;;;5.90;;
73550;SDS011;61816;53.582;10.096;2023-08-30T10:08:49;14.63;;;5.72;;
73550;SDS011;61816;53.582;10.096;2023-08-30T10:11:18;10.65;;;5.30;;
73550;SDS011;61816;53.582;10.096;2023-08-30T10:13:44;11.95;;;5.90;;
73550;SDS011;61816;53.582;10.096;2023-08-30T10:16:13;16.27;;;6.65;;
73550;SDS011;61816;53.582;10.096;2023-08-30T10:18:46;15.18;;;6.47;;
73550;SDS011;61816;53.582;10.096;2023-08-30T10:21:15;10.40;;;6.55;;
73550;SDS011;61816;53.582;10.096;2023-08-30T10:23:43;15.30;;;6.13;;
73550;SDS011;61816;53.582;10.096;2023-08-30T10:26:11;21.75;;;6.63;;
73550;SDS011;61816;53.582;10.096;2023-08-30T10:28:37;18.30;;;6.65;;
73550;SDS011;61816;53.582;10.096;2023-08-30T10:31:04;11.27;;;5.80;;
73550;SDS011;61816;53.582;10.096;2023-08-30T10:33:30;13.18;;;7.05;;
73550;SDS011;61816;53.582;10.096;2023-08-30T10:36:02;14.82;;;5.72;;
73550;SDS011;61816;53.582;10.096;2023-08-30T10:38:32;12.13;;;4.53;;
73550;SDS011;61816;53.582;10.096;2023-08-30T10:41:53;13.38;;;5.85;;
73550;SDS011;61816;53.582;10.096;2023-08-30T10:43:49;13.48;;;5.55;;
73550;SDS011;61816;53.582;10.096;2023-08-30T10:46:16;11.98;;;5.10;;
73550;SDS011;61816;53.582;10.096;2023-08-30T10:48:42;11.65;;;6.03;;
73550;SDS011;61816;53.582;10.096;2023-08-30T10:51:21;12.77;;;4.70;;
73550;SDS011;61816;53.582;10.096;2023-08-30T10:54:10;7.15;;;3.83;;
73550;SDS011;61816;53.582;10.096;2023-08-30T10:56:45;13.45;;;4.18;;
73550;SDS011;61816;53.582;10.096;2023-08-30T10:59:22;7.50;;;4.68;;
73550;SDS011;61816;53.582;10.096;2023-08-30T11:01:49;9.90;;;4.13;;
73550;SDS011;61816;53.582;10.096;2023-08-30T11:04:20;17.95;;;4.72;;
73550;SDS011;61816;53.582;10.096;2023-08-30T11:06:47;9.73;;;4.35;;
73550;SDS011;61816;53.582;10.096;2023-08-30T11:09:14;12.25;;;6.00;;
73550;SDS011;61816;53.582;10.096;2023-08-30T11:11:47;8.65;;;4.32;;
73550;SDS011;61816;53.582;10.096;2023-08-30T11:14:13;12.00;;;4.80;;
73550;SDS011;61816;53.582;10.096;2023-08-30T11:16:39;7.15;;;4.97;;
73550;SDS011;61816;53.582;10.096;2023-08-30T11:19:05;10.38;;;4.97;;
73550;SDS011;61816;53.582;10.096;2023-08-30T11:21:33;11.15;;;4.57;;
73550;SDS011;61816;53.582;10.096;2023-08-30T11:23:59;8.02;;;4.20;;
73550;SDS011;61816;53.582;10.096;2023-08-30T11:26:25;12.85;;;4.15;;
73550;SDS011;61816;53.582;10.096;2023-08-30T11:28:51;11.98;;;4.10;;
73550;SDS011;61816;53.582;10.096;2023-08-30T11:31:23;9.13;;;4.82;;
73550;SDS011;61816;53.582;10.096;2023-08-30T11:33:53;22.42;;;4.97;;
73550;SDS011;61816;53.582;10.096;2023-08-30T11:36:21;12.35;;;3.80;;
73550;SDS011;61816;53.582;10.096;2023-08-30T11:38:47;12.88;;;4.53;;
73550;SDS011;61816;53.582;10.096;2023-08-30T11:41:14;21.98;;;4.43;;
73550;SDS011;61816;53.582;10.096;2023-08-30T11:43:39;9.02;;;4.43;;
73550;SDS011;61816;53.582;10.096;2023-08-30T11:46:05;10.20;;;3.78;;
73550;SDS011;61816;53.582;10.096;2023-08-30T11:48:30;10.52;;;3.70;;
73550;SDS011;61816;53.582;10.096;2023-08-30T11:50:57;11.40;;;3.78;;
73550;SDS011;61816;53.582;10.096;2023-08-30T11:53:23;9.88;;;4.75;;
73550;SDS011;61816;53.582;10.096;2023-08-30T11:55:49;10.13;;;4.85;;
73550;SDS011;61816;53.582;10.096;2023-08-30T11:58:15;9.13;;;4.68;;
73550;SDS011;61816;53.582;10.096;2023-08-30T12:00:42;10.02;;;4.63;;
73550;SDS011;61816;53.582;10.096;2023-08-30T12:03:08;7.25;;;3.70;;
73550;SDS011;61816;53.582;10.096;2023-08-30T12:05:34;11.10;;;4.13;;
73550;SDS011;61816;53.582;10.096;2023-08-30T12:08:00;17.80;;;6.35;;
73550;SDS011;61816;53.582;10.096;2023-08-30T12:10:28;10.40;;;4.40;;
73550;SDS011;61816;53.582;10.096;2023-08-30T12:12:53;7.43;;;4.25;;
73550;SDS011;61816;53.582;10.096;2023-08-30T12:15:22;9.32;;;3.97;;
73550;SDS011;61816;53.582;10.096;2023-08-30T12:17:49;10.10;;;4.60;;
73550;SDS011;61816;53.582;10.096;2023-08-30T12:20:15;8.82;;;4.35;;
73550;SDS011;61816;53.582;10.096;2023-08-30T12:22:42;8.85;;;3.67;;
73550;SDS011;61816;53.582;10.096;2023-08-30T12:25:21;8.70;;;3.83;;
73550;SDS011;61816;53.582;10.096;2023-08-30T12:27:48;10.25;;;5.10;;
73550;SDS011;61816;53.582;10.096;2023-08-30T12:30:17;8.60;;;3.97;;
73550;SDS011;61816;53.582;10.096;2023-08-30T12:32:46;25.85;;;4.22;;
73550;SDS011;61816;53.582;10.096;2023-08-30T12:35:12;8.30;;;4.00;;
73550;SDS011;61816;53.582;10.096;2023-08-30T12:37:37;10.85;;;4.50;;
73550;SDS011;61816;53.582;10.096;2023-08-30T12:40:03;11.82;;;4.40;;
73550;SDS011;61816;53.582;10.096;2023-08-30T12:42:28;8.48;;;4.78;;
73550;SDS011;61816;53.582;10.096;2023-08-30T12:44:54;7.97;;;5.13;;
73550;SDS011;61816;53.582;10.096;2023-08-30T12:47:19;6.80;;;4.25;;
73550;SDS011;61816;53.582;10.096;2023-08-30T12:49:46;4.47;;;3.30;;
73550;SDS011;61816;53.582;10.096;2023-08-30T12:52:11;10.63;;;5.13;;
73550;SDS011;61816;53.582;10.096;2023-08-30T12:54:36;10.35;;;4.68;;
73550;SDS011;61816;53.582;10.096;2023-08-30T12:57:02;11.40;;;4.03;;
73550;SDS011;61816;53.582;10.096;2023-08-30T12:59:28;16.10;;;4.85;;
73550;SDS011;61816;53.582;10.096;2023-08-30T13:01:53;7.90;;;4.53;;
73550;SDS011;61816;53.582;10.096;2023-08-30T13:04:19;13.77;;;3.75;;
73550;SDS011;61816;53.582;10.096;2023-08-30T13:06:44;12.00;;;4.80;;
73550;SDS011;61816;53.582;10.096;2023-08-30T13:09:09;8.43;;;4.22;;
73550;SDS011;61816;53.582;10.096;2023-08-30T13:11:35;10.80;;;4.20;;
73550;SDS011;61816;53.582;10.096;2023-08-30T13:14:00;6.20;;;3.83;;
73550;SDS011;61816;53.582;10.096;2023-08-30T13:16:26;6.57;;;3.90;;
73550;SDS011;61816;53.582;10.096;2023-08-30T13:18:51;8.60;;;4.00;;
73550;SDS011;61816;53.582;10.096;2023-08-30T13:21:16;11.07;;;5.00;;
73550;SDS011;61816;53.582;10.096;2023-08-30T13:23:42;6.53;;;4.28;;
73550;SDS011;61816;53.582;10.096;2023-08-30T13:26:07;10.23;;;4.13;;
73550;SDS011;61816;53.582;10.096;2023-08-30T13:28:32;13.57;;;4.80;;
73550;SDS011;61816;53.582;10.096;2023-08-30T13:30:59;10.00;;;3.45;;
73550;SDS011;61816;53.582;10.096;2023-08-30T13:33:25;10.95;;;3.95;;
73550;SDS011;61816;53.582;10.096;2023-08-30T13:35:51;10.48;;;4.60;;
73550;SDS011;61816;53.582;10.096;2023-08-30T13:38:17;8.70;;;4.38;;
73550;SDS011;61816;53.582;10.096;2023-08-30T13:40:43;7.30;;;4.07;;
73550;SDS011;61816;53.582;10.096;2023-08-30T13:43:08;9.98;;;4.38;;
73550;SDS011;61816;53.582;10.096;2023-08-30T13:45:33;11.95;;;4.55;;
73550;SDS011;61816;53.582;10.096;2023-08-30T13:47:59;6.53;;;3.95;;
73550;SDS011;61816;53.582;10.096;2023-08-30T13:50:25;9.02;;;4.90;;
73550;SDS011;61816;53.582;10.096;2023-08-30T13:52:55;7.03;;;4.20;;
73550;SDS011;61816;53.582;10.096;2023-08-30T13:55:21;9.98;;;4.78;;
73550;SDS011;61816;53.582;10.096;2023-08-30T13:57:47;8.68;;;3.83;;
73550;SDS011;61816;53.582;10.096;2023-08-30T14:00:12;6.70;;;3.80;;
73550;SDS011;61816;53.582;10.096;2023-08-30T14:02:38;6.60;;;3.30;;
73550;SDS011;61816;53.582;10.096;2023-08-30T14:05:04;11.68;;;3.92;;
73550;SDS011;61816;53.582;10.096;2023-08-30T14:07:30;5.72;;;4.07;;
73550;SDS011;61816;53.582;10.096;2023-08-30T14:09:55;7.68;;;3.85;;
73550;SDS011;61816;53.582;10.096;2023-08-30T14:12:20;7.90;;;3.88;;
73550;SDS011;61816;53.582;10.096;2023-08-30T14:14:46;8.38;;;3.65;;
73550;SDS011;61816;53.582;10.096;2023-08-30T14:17:11;10.57;;;4.20;;
73550;SDS011;61816;53.582;10.096;2023-08-30T14:19:37;6.35;;;3.67;;
73550;SDS011;61816;53.582;10.096;2023-08-30T14:22:03;6.30;;;3.45;;